Georgetown, Delaware
Current Conditions -  °F | °C
As of 7:54 PM on Monday 24 Nov 2014 (Local Time) from KGED Reporting Station
Clear Clear  
Wind Chill: 19°   Ceiling: Unl
Heat Index: 19°   Visibility: 10mi
Dew Point: 16°   Wind: 9mph
Humidity: 84%   Direction: 200°SSW
Pressure: 29.78"   Gusts: NA
Location:  38.69°N, 75.39°W
Report Text: KGED 250054Z AUTO 20008KT 10SM CLR 19/16 A2978 RMK AO2 SLP083 T01890161
Loading
Personal Weather Stations






























Interactive Weather Map New forecast layout! Learn more

10-Day Weather Forecast

Advertisements
Track Severe Weather on mobile